EVLA/LPX METAR and TAF weather

Enter ICAO airport designator
Station Type Date Time Source
EVLA METAR 2020/03/29 20:50 UTC NOAA

EVLA 292050Z AUTO 00000KT 9999 NCD M02/M05 Q1023


Station Type Date Time Source
EVLA Decoded METAR 2020/03/29 20:50 UTC NOAA

Liepaja International Airport, Latvia (EVLA) 56-31N 021-05E
Mar 29, 2020 - 04:50 PM EDT / 2020.03.29 2050 UTC
Wind: Calm:0
Visibility: greater than 7 mile(s):0
Temperature: 28 F (-2 C)
Dew Point: 23 F (-5 C)
Relative Humidity: 79%
Pressure (altimeter): 30.21 in. Hg (1023 hPa)
ob: EVLA 292050Z AUTO 00000KT 9999 NCD M02/M05 Q1023
cycle: 21

Station Type Date Time Source
EVLA TAF 2020/03/29 21:10 UTC NOAA

TAF EVLA 292004Z 2921/3021 33007KT 9999 SCT025
TEMPO 3012/3015 35015G30KT 1500 SHSNRA BKN010 SCT015CB
TEMPO 3015/3021 4000 -SHSNRA BKN010 SCT015CB

Example: see airport list